Time;durP1;ratioP1;P1;durP2;ratioP2;P2;SDS_P1;SDS_P2;PMS_P1;PMS_P2;Temp;Humidity;BMP_temperature;BMP_pressure;BME280_temperature;BME280_humidity;BME280_pressure;Samples;Min_cycle;Max_cycle;Signal;HPM_P1;HPM_P2
2024/03/12 00:01:25;;;;;;;0.10;0.10;;;;;;;;;;4980627;28;92638;-48
2024/03/12 00:03:50;;;;;;;0.75;0.30;;;;;;;;;;4979873;28;92002;-48
2024/03/12 00:06:16;;;;;;;0.10;0.10;;;;;;;;;;4980137;28;92352;-51
2024/03/12 00:08:42;;;;;;;0.00;0.00;;;;;;;;;;4982060;28;92646;-48
2024/03/12 00:11:07;;;;;;;0.40;0.20;;;;;;;;;;4980629;28;91905;-48
2024/03/12 00:13:34;;;;;;;0.10;0.10;;;;;;;;;;4980432;28;92877;-48
2024/03/12 00:16:00;;;;;;;0.00;0.00;;;;;;;;;;4982564;28;91260;-50
2024/03/12 00:18:25;;;;;;;0.15;0.15;;;;;;;;;;4981706;28;91957;-48
2024/03/12 00:20:51;;;;;;;0.40;0.30;;;;;;;;;;4981174;28;93687;-48
2024/03/12 00:23:16;;;;;;;1.20;0.60;;;;;;;;;;4983607;28;93110;-50
2024/03/12 00:25:42;;;;;;;0.10;0.10;;;;;;;;;;4980354;28;92884;-48
2024/03/12 00:28:08;;;;;;;0.23;0.13;;;;;;;;;;4980774;28;91842;-52
2024/03/12 00:30:34;;;;;;;0.08;0.08;;;;;;;;;;4979993;28;91900;-49
2024/03/12 00:33:00;;;;;;;1.30;0.10;;;;;;;;;;4980062;28;91938;-48
2024/03/12 00:35:32;;;;;;;0.43;0.22;;;;;;;;;;4981277;28;91933;-50
2024/03/12 00:37:57;;;;;;;0.10;0.00;;;;;;;;;;4981971;28;92270;-48
2024/03/12 00:40:23;;;;;;;0.00;0.00;;;;;;;;;;4984068;28;91219;-49
2024/03/12 00:42:48;;;;;;;0.20;0.20;;;;;;;;;;4981197;28;92047;-49
2024/03/12 00:45:14;;;;;;;0.00;0.00;;;;;;;;;;4983024;28;91995;-51
2024/03/12 00:47:40;;;;;;;0.00;0.00;;;;;;;;;;4980012;28;93183;-48
2024/03/12 00:50:07;;;;;;;0.30;0.30;;;;;;;;;;4983892;28;92046;-48
2024/03/12 00:52:33;;;;;;;0.13;0.10;;;;;;;;;;4983484;28;91935;-50
2024/03/12 00:54:58;;;;;;;0.10;0.10;;;;;;;;;;4984313;28;91953;-48
2024/03/12 00:57:27;;;;;;;0.30;0.00;;;;;;;;;;4986043;28;91789;-48
2024/03/12 00:59:52;;;;;;;0.10;0.10;;;;;;;;;;4984968;28;91896;-49
2024/03/12 01:02:19;;;;;;;0.10;0.10;;;;;;;;;;4985318;28;92334;-51
2024/03/12 01:04:45;;;;;;;2.03;0.20;;;;;;;;;;4986185;28;92249;-51
2024/03/12 01:07:10;;;;;;;0.00;0.00;;;;;;;;;;4987742;28;92589;-49
2024/03/12 01:09:39;;;;;;;0.17;0.10;;;;;;;;;;4985982;28;92476;-50
2024/03/12 01:12:06;;;;;;;1.05;0.25;;;;;;;;;;4984693;28;93692;-49
2024/03/12 01:14:31;;;;;;;0.10;0.10;;;;;;;;;;4987375;28;92371;-48
2024/03/12 01:16:56;;;;;;;0.10;0.10;;;;;;;;;;4987365;28;91919;-48
2024/03/12 01:19:21;;;;;;;0.33;0.07;;;;;;;;;;4984486;28;93617;-48
2024/03/12 01:21:47;;;;;;;0.40;0.20;;;;;;;;;;4983321;28;91644;-47
2024/03/12 01:24:12;;;;;;;0.63;0.20;;;;;;;;;;4984179;28;91976;-50
2024/03/12 01:26:38;;;;;;;0.00;0.00;;;;;;;;;;4984934;28;92482;-51
2024/03/12 01:29:04;;;;;;;0.20;0.10;;;;;;;;;;4988034;28;91762;-49
2024/03/12 01:31:31;;;;;;;0.00;0.00;;;;;;;;;;4983750;28;92538;-49
2024/03/12 01:33:56;;;;;;;0.20;0.20;;;;;;;;;;4983332;28;91917;-49
2024/03/12 01:36:34;;;;;;;0.00;0.00;;;;;;;;;;4983258;28;92810;-49
2024/03/12 01:39:03;;;;;;;0.30;0.15;;;;;;;;;;4983628;28;92488;-48
2024/03/12 01:41:31;;;;;;;0.30;0.20;;;;;;;;;;4983790;28;91789;-50
2024/03/12 01:44:02;;;;;;;0.20;0.00;;;;;;;;;;4983050;28;93508;-50
2024/03/12 01:46:31;;;;;;;0.10;0.10;;;;;;;;;;4985425;28;91886;-49
2024/03/12 01:48:58;;;;;;;0.05;0.05;;;;;;;;;;4983204;28;91767;-49
2024/03/12 01:51:24;;;;;;;0.00;0.00;;;;;;;;;;4986368;28;91882;-49
2024/03/12 01:53:49;;;;;;;0.10;0.00;;;;;;;;;;4983242;28;91587;-49
2024/03/12 01:56:17;;;;;;;0.00;0.00;;;;;;;;;;4982855;28;91953;-49
2024/03/12 01:58:44;;;;;;;0.00;0.00;;;;;;;;;;4983210;28;92679;-51
2024/03/12 02:01:09;;;;;;;0.90;0.50;;;;;;;;;;4981322;28;93027;-51
2024/03/12 02:03:34;;;;;;;0.10;0.10;;;;;;;;;;4983945;28;93442;-47
2024/03/12 02:06:00;;;;;;;0.00;0.00;;;;;;;;;;4982577;28;92498;-52
2024/03/12 02:08:25;;;;;;;0.00;0.00;;;;;;;;;;4983403;28;92981;-50
2024/03/12 02:10:51;;;;;;;0.00;0.00;;;;;;;;;;4985698;28;93495;-48
2024/03/12 02:13:17;;;;;;;0.30;0.08;;;;;;;;;;4983095;28;91943;-49
2024/03/12 02:15:43;;;;;;;0.20;0.20;;;;;;;;;;4980408;28;94911;-51
2024/03/12 02:18:08;;;;;;;0.10;0.10;;;;;;;;;;4981930;28;91074;-51
2024/03/12 02:20:34;;;;;;;0.03;0.03;;;;;;;;;;4982076;28;92028;-49
2024/03/12 02:22:59;;;;;;;0.30;0.20;;;;;;;;;;4982264;28;92291;-48
2024/03/12 02:25:25;;;;;;;0.20;0.10;;;;;;;;;;4980915;28;95138;-51
2024/03/12 02:27:50;;;;;;;0.00;0.00;;;;;;;;;;4983856;28;91800;-48
2024/03/12 02:30:16;;;;;;;0.90;0.20;;;;;;;;;;4983171;28;91937;-49
2024/03/12 02:32:41;;;;;;;0.40;0.10;;;;;;;;;;4987786;28;92925;-49
2024/03/12 02:35:11;;;;;;;0.00;0.00;;;;;;;;;;4982492;28;91795;-48
2024/03/12 02:37:38;;;;;;;0.40;0.20;;;;;;;;;;4981972;28;93766;-49
2024/03/12 02:40:05;;;;;;;0.35;0.25;;;;;;;;;;4981762;28;91907;-49
2024/03/12 02:42:30;;;;;;;0.20;0.20;;;;;;;;;;4984114;28;92193;-48
2024/03/12 02:44:56;;;;;;;0.20;0.00;;;;;;;;;;4983126;28;92429;-52
2024/03/12 02:47:22;;;;;;;0.57;0.15;;;;;;;;;;4982981;28;91984;-49
2024/03/12 02:49:47;;;;;;;0.27;0.10;;;;;;;;;;4982607;28;92930;-47
2024/03/12 02:52:12;;;;;;;0.10;0.10;;;;;;;;;;4982354;28;92681;-49
2024/03/12 02:54:38;;;;;;;0.60;0.10;;;;;;;;;;4986237;28;92641;-48
2024/03/12 02:57:03;;;;;;;0.00;0.00;;;;;;;;;;4984309;28;91846;-49
2024/03/12 02:59:30;;;;;;;0.00;0.00;;;;;;;;;;4984813;28;91909;-51
2024/03/12 03:01:55;;;;;;;0.00;0.00;;;;;;;;;;4983276;28;91910;-50
2024/03/12 03:04:21;;;;;;;0.00;0.00;;;;;;;;;;4983248;28;91807;-48
2024/03/12 03:06:47;;;;;;;0.50;0.20;;;;;;;;;;4984987;28;91122;-49
2024/03/12 03:09:12;;;;;;;1.50;0.13;;;;;;;;;;4984532;28;92102;-48
2024/03/12 03:11:38;;;;;;;0.00;0.00;;;;;;;;;;4982784;28;92504;-48
2024/03/12 03:14:03;;;;;;;0.73;0.07;;;;;;;;;;4983264;28;93032;-49
2024/03/12 03:16:28;;;;;;;0.10;0.10;;;;;;;;;;4987754;28;92831;-50
2024/03/12 03:18:57;;;;;;;0.00;0.00;;;;;;;;;;4984276;28;92100;-51
2024/03/12 03:21:22;;;;;;;1.10;0.22;;;;;;;;;;4984216;28;91851;-48
2024/03/12 03:23:47;;;;;;;0.00;0.00;;;;;;;;;;4983101;28;91919;-49
2024/03/12 03:26:12;;;;;;;0.00;0.00;;;;;;;;;;4984506;28;92323;-52
2024/03/12 03:28:38;;;;;;;0.40;0.20;;;;;;;;;;4982906;28;92287;-47
2024/03/12 03:31:03;;;;;;;0.07;0.07;;;;;;;;;;4981966;28;91323;-49
2024/03/12 03:33:28;;;;;;;0.00;0.00;;;;;;;;;;4980504;28;91800;-51
2024/03/12 03:35:54;;;;;;;0.00;0.00;;;;;;;;;;4982405;28;91834;-49
2024/03/12 03:38:19;;;;;;;0.20;0.10;;;;;;;;;;4985398;28;92996;-50
2024/03/12 03:40:45;;;;;;;0.80;0.30;;;;;;;;;;4982438;28;93216;-50
2024/03/12 03:43:10;;;;;;;1.70;0.10;;;;;;;;;;4982125;28;92273;-48
2024/03/12 03:45:35;;;;;;;0.00;0.00;;;;;;;;;;4984461;28;92155;-50
2024/03/12 03:48:00;;;;;;;0.30;0.20;;;;;;;;;;4985383;28;92146;-49
2024/03/12 03:50:26;;;;;;;0.50;0.10;;;;;;;;;;4983748;28;92351;-50
2024/03/12 03:52:52;;;;;;;0.00;0.00;;;;;;;;;;4984540;28;91890;-47
2024/03/12 03:55:19;;;;;;;0.08;0.08;;;;;;;;;;4984561;28;92183;-48
2024/03/12 03:57:45;;;;;;;0.00;0.00;;;;;;;;;;4981482;28;92697;-50
2024/03/12 04:00:13;;;;;;;1.60;0.10;;;;;;;;;;4984902;28;91860;-49
2024/03/12 04:02:39;;;;;;;0.00;0.00;;;;;;;;;;4982024;28;93529;-48
2024/03/12 04:05:06;;;;;;;0.10;0.10;;;;;;;;;;4982000;28;92263;-49
2024/03/12 04:07:31;;;;;;;0.10;0.10;;;;;;;;;;4983040;28;92002;-49
2024/03/12 04:09:56;;;;;;;0.20;0.20;;;;;;;;;;4982954;28;92819;-48
2024/03/12 04:12:22;;;;;;;0.10;0.10;;;;;;;;;;4982633;28;91843;-48
2024/03/12 04:14:47;;;;;;;0.00;0.00;;;;;;;;;;4982985;28;91956;-51
2024/03/12 04:17:13;;;;;;;0.20;0.10;;;;;;;;;;4982954;28;92636;-48
2024/03/12 04:19:38;;;;;;;1.50;0.10;;;;;;;;;;4985853;28;91191;-49
2024/03/12 04:22:05;;;;;;;0.20;0.20;;;;;;;;;;4981940;28;92401;-48
2024/03/12 04:24:31;;;;;;;0.20;0.00;;;;;;;;;;4981190;28;91839;-48
2024/03/12 04:26:56;;;;;;;0.00;0.00;;;;;;;;;;4980580;28;92928;-48
2024/03/12 04:29:21;;;;;;;0.20;0.20;;;;;;;;;;4980644;28;91893;-50
2024/03/12 04:31:47;;;;;;;0.05;0.03;;;;;;;;;;4980771;28;91859;-49
2024/03/12 04:34:12;;;;;;;0.20;0.20;;;;;;;;;;4980376;28;92144;-52
2024/03/12 04:36:37;;;;;;;0.00;0.00;;;;;;;;;;4981498;28;92698;-48
2024/03/12 04:41:47;;;;;;;0.27;0.10;;;;;;;;;;4984303;28;91983;-48
2024/03/12 04:44:13;;;;;;;0.20;0.20;;;;;;;;;;4982334;28;91288;-50
2024/03/12 04:46:42;;;;;;;0.17;0.17;;;;;;;;;;4980329;28;92607;-52
2024/03/12 04:49:07;;;;;;;0.00;0.00;;;;;;;;;;4980709;28;92502;-49
2024/03/12 04:51:33;;;;;;;0.00;0.00;;;;;;;;;;4980203;28;92950;-48
2024/03/12 04:53:58;;;;;;;0.00;0.00;;;;;;;;;;4979409;28;93210;-48
2024/03/12 04:56:23;;;;;;;0.00;0.00;;;;;;;;;;4980892;28;93635;-49
2024/03/12 04:58:48;;;;;;;0.10;0.10;;;;;;;;;;4981346;28;91816;-48
2024/03/12 05:01:13;;;;;;;0.13;0.13;;;;;;;;;;4978616;28;93813;-48
2024/03/12 05:03:39;;;;;;;0.30;0.20;;;;;;;;;;4982560;28;93520;-51
2024/03/12 05:06:05;;;;;;;0.10;0.00;;;;;;;;;;4981576;28;92247;-49
2024/03/12 05:08:30;;;;;;;0.10;0.10;;;;;;;;;;4981401;28;91827;-49
2024/03/12 05:10:55;;;;;;;0.13;0.13;;;;;;;;;;4980961;28;91934;-51
2024/03/12 05:13:21;;;;;;;0.33;0.10;;;;;;;;;;4981435;28;92159;-50
2024/03/12 05:15:46;;;;;;;0.20;0.20;;;;;;;;;;4980140;28;93436;-48
2024/03/12 05:18:12;;;;;;;0.20;0.20;;;;;;;;;;4979660;28;91938;-49
2024/03/12 05:20:37;;;;;;;0.40;0.10;;;;;;;;;;4979593;28;91932;-51
2024/03/12 05:23:03;;;;;;;0.40;0.20;;;;;;;;;;4981532;28;91860;-49
2024/03/12 05:25:42;;;;;;;0.00;0.00;;;;;;;;;;4985497;28;92123;-49
2024/03/12 05:28:08;;;;;;;0.07;0.00;;;;;;;;;;4981382;28;92620;-52
2024/03/12 05:30:37;;;;;;;0.20;0.10;;;;;;;;;;4981389;28;91960;-49
2024/03/12 05:33:04;;;;;;;0.20;0.10;;;;;;;;;;4981749;28;91307;-50
2024/03/12 05:35:31;;;;;;;0.10;0.10;;;;;;;;;;4981561;28;92559;-50
2024/03/12 05:38:03;;;;;;;0.00;0.00;;;;;;;;;;4983299;28;91791;-51
2024/03/12 05:40:39;;;;;;;0.10;0.10;;;;;;;;;;4984091;28;92987;-48
2024/03/12 05:48:33;;;;;;;0.80;0.20;;;;;;;;;;4988313;28;91949;-50
2024/03/12 05:50:59;;;;;;;0.10;0.10;;;;;;;;;;4984714;28;91827;-48
2024/03/12 05:53:24;;;;;;;0.17;0.10;;;;;;;;;;4983698;28;93242;-51
2024/03/12 05:55:49;;;;;;;0.00;0.00;;;;;;;;;;4985199;28;91791;-49
2024/03/12 05:58:15;;;;;;;0.10;0.10;;;;;;;;;;4984542;28;91320;-52
2024/03/12 06:00:41;;;;;;;0.10;0.10;;;;;;;;;;4986525;28;91919;-51
2024/03/12 06:03:06;;;;;;;0.10;0.10;;;;;;;;;;4983763;28;92513;-48
2024/03/12 06:05:32;;;;;;;0.10;0.10;;;;;;;;;;4984151;28;93389;-50
2024/03/12 06:07:59;;;;;;;0.10;0.00;;;;;;;;;;4987782;28;92035;-50
2024/03/12 06:10:25;;;;;;;0.20;0.10;;;;;;;;;;4983465;28;91950;-47
2024/03/12 06:12:51;;;;;;;0.10;0.10;;;;;;;;;;4980564;28;92402;-51
2024/03/12 06:15:16;;;;;;;0.10;0.10;;;;;;;;;;4982689;28;92457;-50
2024/03/12 06:17:42;;;;;;;0.10;0.10;;;;;;;;;;4983278;28;92486;-48
2024/03/12 06:20:08;;;;;;;0.20;0.10;;;;;;;;;;4981945;28;92064;-48
2024/03/12 06:22:33;;;;;;;3.10;0.10;;;;;;;;;;4982672;28;91160;-52
2024/03/12 06:24:58;;;;;;;0.40;0.10;;;;;;;;;;4981495;28;91823;-50
2024/03/12 06:27:24;;;;;;;0.10;0.10;;;;;;;;;;4981767;28;92073;-49
2024/03/12 06:29:52;;;;;;;0.00;0.00;;;;;;;;;;4985977;28;92875;-47
2024/03/12 06:32:19;;;;;;;0.00;0.00;;;;;;;;;;4984463;28;91918;-51
2024/03/12 06:34:45;;;;;;;0.40;0.10;;;;;;;;;;4983612;28;92588;-49
2024/03/12 06:37:10;;;;;;;0.00;0.00;;;;;;;;;;4983861;28;91992;-49
2024/03/12 06:39:36;;;;;;;0.03;0.00;;;;;;;;;;4983724;28;91789;-48
2024/03/12 06:42:01;;;;;;;0.50;0.30;;;;;;;;;;4984318;28;92503;-49
2024/03/12 06:44:27;;;;;;;0.20;0.00;;;;;;;;;;4982679;28;91918;-51
2024/03/12 06:46:53;;;;;;;0.10;0.10;;;;;;;;;;4983224;28;92636;-49
2024/03/12 06:49:20;;;;;;;0.40;0.40;;;;;;;;;;4985501;28;91953;-44
2024/03/12 06:51:47;;;;;;;0.50;0.32;;;;;;;;;;4988512;28;93838;-45
2024/03/12 06:54:12;;;;;;;0.35;0.28;;;;;;;;;;4986120;28;94050;-45
2024/03/12 06:56:42;;;;;;;0.50;0.47;;;;;;;;;;4987762;28;92048;-45
2024/03/12 06:59:10;;;;;;;0.20;0.20;;;;;;;;;;4985346;28;95555;-44
2024/03/12 07:01:40;;;;;;;1.20;0.52;;;;;;;;;;4985495;28;92614;-44
2024/03/12 07:04:06;;;;;;;0.85;0.50;;;;;;;;;;4985863;28;91863;-45
2024/03/12 07:06:32;;;;;;;0.35;0.30;;;;;;;;;;4983283;28;92237;-44
2024/03/12 07:09:04;;;;;;;1.90;1.00;;;;;;;;;;4980993;28;91947;-44
2024/03/12 07:11:29;;;;;;;2.35;1.25;;;;;;;;;;4981698;28;91251;-50
2024/03/12 07:14:02;;;;;;;2.17;0.53;;;;;;;;;;4981694;28;92539;-51
2024/03/12 07:16:27;;;;;;;0.40;0.30;;;;;;;;;;4978372;28;91986;-49
2024/03/12 07:18:54;;;;;;;0.30;0.30;;;;;;;;;;4978500;28;92888;-48
2024/03/12 07:21:20;;;;;;;0.47;0.35;;;;;;;;;;4980717;28;92527;-48
2024/03/12 07:23:45;;;;;;;0.60;0.40;;;;;;;;;;4981757;28;91960;-49
2024/03/12 07:26:10;;;;;;;1.03;0.40;;;;;;;;;;4982730;28;92571;-49
2024/03/12 07:28:35;;;;;;;0.20;0.13;;;;;;;;;;4980209;28;92341;-48
2024/03/12 07:31:02;;;;;;;1.00;0.70;;;;;;;;;;4981229;28;91785;-48
2024/03/12 07:33:29;;;;;;;0.20;0.20;;;;;;;;;;4980948;28;91796;-48
2024/03/12 07:35:54;;;;;;;1.40;0.38;;;;;;;;;;4986494;28;91719;-49
2024/03/12 07:38:19;;;;;;;0.28;0.28;;;;;;;;;;4983168;28;92332;-49
2024/03/12 07:40:45;;;;;;;0.35;0.35;;;;;;;;;;4979826;28;93576;-48
2024/03/12 07:43:11;;;;;;;0.63;0.52;;;;;;;;;;4978844;28;93021;-51
2024/03/12 07:45:42;;;;;;;1.03;0.20;;;;;;;;;;4979735;28;93284;-48
2024/03/12 07:48:07;;;;;;;1.15;0.47;;;;;;;;;;4981855;28;92712;-48
2024/03/12 07:50:33;;;;;;;0.33;0.33;;;;;;;;;;4982018;28;92059;-48
2024/03/12 07:52:58;;;;;;;0.50;0.40;;;;;;;;;;4980097;28;92393;-49
2024/03/12 07:55:25;;;;;;;0.70;0.40;;;;;;;;;;4980250;28;92953;-49
2024/03/12 07:57:50;;;;;;;1.60;0.40;;;;;;;;;;4983243;28;92126;-49
2024/03/12 08:00:16;;;;;;;0.30;0.20;;;;;;;;;;4978973;28;91927;-48
2024/03/12 08:02:41;;;;;;;1.00;0.75;;;;;;;;;;4979871;28;91942;-48
2024/03/12 08:05:07;;;;;;;0.52;0.35;;;;;;;;;;4977651;28;93526;-48
2024/03/12 08:07:33;;;;;;;0.80;0.50;;;;;;;;;;4977522;28;93485;-48
2024/03/12 08:09:58;;;;;;;0.30;0.27;;;;;;;;;;4979669;28;91975;-48
2024/03/12 08:12:23;;;;;;;1.00;0.20;;;;;;;;;;4979427;28;94300;-48
2024/03/12 08:14:49;;;;;;;0.10;0.10;;;;;;;;;;4979121;28;94600;-48
2024/03/12 08:17:14;;;;;;;1.40;0.40;;;;;;;;;;4983546;28;92090;-52
2024/03/12 08:19:40;;;;;;;1.13;0.33;;;;;;;;;;4979064;28;92680;-48
2024/03/12 08:22:08;;;;;;;0.60;0.35;;;;;;;;;;4980680;28;91741;-49
2024/03/12 08:24:33;;;;;;;0.88;0.43;;;;;;;;;;4982101;28;92101;-47
2024/03/12 08:26:59;;;;;;;1.70;0.57;;;;;;;;;;4982014;28;94368;-50
2024/03/12 08:29:24;;;;;;;2.57;0.43;;;;;;;;;;4981008;28;92220;-51
2024/03/12 08:31:49;;;;;;;0.57;0.40;;;;;;;;;;4980953;28;92906;-47
2024/03/12 08:34:17;;;;;;;0.53;0.37;;;;;;;;;;4981118;28;92416;-47
2024/03/12 08:36:43;;;;;;;1.10;0.52;;;;;;;;;;4982156;28;92006;-52
2024/03/12 08:39:11;;;;;;;0.90;0.60;;;;;;;;;;4984924;28;92144;-48
2024/03/12 08:41:36;;;;;;;0.20;0.20;;;;;;;;;;4982213;28;92129;-49
2024/03/12 08:44:02;;;;;;;2.30;0.60;;;;;;;;;;4979626;28;92256;-51
2024/03/12 08:46:28;;;;;;;6.20;0.50;;;;;;;;;;4981226;28;92292;-48
2024/03/12 08:48:53;;;;;;;0.40;0.40;;;;;;;;;;4982568;28;91391;-48
2024/03/12 08:51:18;;;;;;;1.00;0.40;;;;;;;;;;4979836;28;92179;-48
2024/03/12 08:53:44;;;;;;;0.27;0.23;;;;;;;;;;4981157;28;92044;-49
2024/03/12 08:56:09;;;;;;;1.30;0.30;;;;;;;;;;4981378;28;92823;-50
2024/03/12 08:58:34;;;;;;;0.30;0.30;;;;;;;;;;4980499;28;91996;-48
2024/03/12 09:01:00;;;;;;;0.70;0.30;;;;;;;;;;4983382;28;91870;-48
2024/03/12 09:03:26;;;;;;;0.10;0.10;;;;;;;;;;4979632;28;92135;-48
2024/03/12 09:05:51;;;;;;;0.30;0.30;;;;;;;;;;4981025;28;92528;-48
2024/03/12 09:08:17;;;;;;;0.80;0.40;;;;;;;;;;4982646;28;92102;-47
2024/03/12 09:10:43;;;;;;;0.35;0.35;;;;;;;;;;4983459;28;92033;-49
2024/03/12 09:13:08;;;;;;;0.70;0.40;;;;;;;;;;4985657;28;91677;-49
2024/03/12 09:15:34;;;;;;;1.65;0.40;;;;;;;;;;4985250;28;91965;-49
2024/03/12 09:18:04;;;;;;;0.90;0.30;;;;;;;;;;4984434;28;92309;-48
2024/03/12 09:20:30;;;;;;;0.55;0.55;;;;;;;;;;4983072;28;92783;-49
2024/03/12 09:22:55;;;;;;;0.70;0.50;;;;;;;;;;4987803;28;92002;-50
2024/03/12 09:25:23;;;;;;;2.10;1.00;;;;;;;;;;4985037;28;91887;-49
2024/03/12 09:27:48;;;;;;;1.50;0.65;;;;;;;;;;4986445;28;91758;-47
2024/03/12 09:30:16;;;;;;;0.83;0.23;;;;;;;;;;4986089;28;91850;-53
2024/03/12 09:32:42;;;;;;;0.80;0.43;;;;;;;;;;4985122;28;91851;-48
2024/03/12 09:35:07;;;;;;;0.30;0.23;;;;;;;;;;4984888;28;92057;-48
2024/03/12 09:37:35;;;;;;;1.10;0.30;;;;;;;;;;4984668;28;92166;-50
2024/03/12 09:40:01;;;;;;;2.13;0.60;;;;;;;;;;4983037;28;92522;-49
2024/03/12 09:42:27;;;;;;;0.82;0.47;;;;;;;;;;4983675;28;92022;-48
2024/03/12 09:44:53;;;;;;;0.40;0.20;;;;;;;;;;4985979;28;92786;-48
2024/03/12 09:47:20;;;;;;;0.47;0.47;;;;;;;;;;4982868;28;91905;-47
2024/03/12 09:49:45;;;;;;;0.43;0.40;;;;;;;;;;4982059;28;92165;-49
2024/03/12 09:52:11;;;;;;;0.50;0.33;;;;;;;;;;4982318;28;92698;-47
2024/03/12 09:54:38;;;;;;;1.85;0.82;;;;;;;;;;4982152;28;103935;-50
2024/03/12 09:57:05;;;;;;;1.58;0.40;;;;;;;;;;4984500;28;91913;-49
2024/03/12 09:59:31;;;;;;;0.30;0.20;;;;;;;;;;4984228;28;92004;-48
2024/03/12 10:01:56;;;;;;;0.20;0.20;;;;;;;;;;4985926;28;91163;-48
2024/03/12 10:04:24;;;;;;;0.40;0.40;;;;;;;;;;4984724;28;91989;-49
2024/03/12 10:06:50;;;;;;;0.43;0.40;;;;;;;;;;4987637;28;92538;-49
2024/03/12 10:09:17;;;;;;;1.50;0.70;;;;;;;;;;4984011;28;92985;-47
2024/03/12 10:11:45;;;;;;;0.50;0.47;;;;;;;;;;4983792;28;92484;-47
2024/03/12 10:14:12;;;;;;;0.32;0.30;;;;;;;;;;4984409;28;92148;-49
2024/03/12 10:16:38;;;;;;;2.30;0.50;;;;;;;;;;4984603;28;92016;-52
2024/03/12 10:19:11;;;;;;;0.38;0.35;;;;;;;;;;4986524;28;91922;-48
2024/03/12 10:21:36;;;;;;;1.20;0.60;;;;;;;;;;4984695;28;92113;-52
2024/03/12 10:24:10;;;;;;;0.73;0.30;;;;;;;;;;4984418;28;92448;-49
2024/03/12 10:26:35;;;;;;;6.60;0.35;;;;;;;;;;4987278;28;91647;-47
2024/03/12 10:29:21;;;;;;;0.23;0.20;;;;;;;;;;4985202;28;92012;-48
2024/03/12 10:31:47;;;;;;;1.00;0.60;;;;;;;;;;4983864;28;91956;-48
2024/03/12 10:34:15;;;;;;;1.45;0.50;;;;;;;;;;4982996;28;92985;-48
2024/03/12 10:36:43;;;;;;;1.30;0.57;;;;;;;;;;4983070;28;92180;-48
2024/03/12 10:39:12;;;;;;;0.40;0.20;;;;;;;;;;4982747;28;91962;-48
2024/03/12 10:41:38;;;;;;;0.10;0.10;;;;;;;;;;4981498;28;92072;-48
2024/03/12 10:44:05;;;;;;;2.00;1.00;;;;;;;;;;4982098;28;92185;-48
2024/03/12 10:46:30;;;;;;;0.90;0.50;;;;;;;;;;4980386;28;94055;-50
2024/03/12 10:48:55;;;;;;;0.20;0.20;;;;;;;;;;4983441;28;92093;-48
2024/03/12 10:51:21;;;;;;;0.30;0.30;;;;;;;;;;4979567;28;93737;-50
2024/03/12 10:53:51;;;;;;;0.15;0.13;;;;;;;;;;4982888;28;92007;-48
2024/03/12 10:56:16;;;;;;;5.03;1.88;;;;;;;;;;4982271;28;92594;-50
2024/03/12 10:58:46;;;;;;;35.90;9.87;;;;;;;;;;4979566;28;95581;-48
2024/03/12 11:01:12;;;;;;;89.53;29.27;;;;;;;;;;4982222;28;92239;-48
2024/03/12 11:03:37;;;;;;;87.40;28.97;;;;;;;;;;4980461;28;92396;-47
2024/03/12 11:06:03;;;;;;;61.47;23.55;;;;;;;;;;4981957;28;92530;-47
2024/03/12 11:08:29;;;;;;;65.90;18.93;;;;;;;;;;4982509;28;91985;-48
2024/03/12 11:10:55;;;;;;;36.83;13.83;;;;;;;;;;4984560;28;92325;-49
2024/03/12 11:13:21;;;;;;;35.97;11.00;;;;;;;;;;4983177;28;91985;-48
2024/03/12 11:15:46;;;;;;;24.33;9.53;;;;;;;;;;4983939;28;91463;-48
2024/03/12 11:18:13;;;;;;;16.67;8.18;;;;;;;;;;4984665;28;91803;-49
2024/03/12 11:20:42;;;;;;;23.13;9.48;;;;;;;;;;4985030;28;91976;-49
2024/03/12 11:23:07;;;;;;;28.67;9.25;;;;;;;;;;4984014;28;92713;-51
2024/03/12 11:25:32;;;;;;;13.80;7.10;;;;;;;;;;4982429;28;92985;-54
2024/03/12 11:28:16;;;;;;;20.57;7.53;;;;;;;;;;4981831;28;92644;-49
2024/03/12 11:30:43;;;;;;;19.63;5.15;;;;;;;;;;4983308;28;92337;-51
2024/03/12 11:33:08;;;;;;;15.88;6.20;;;;;;;;;;4984764;28;91917;-50
2024/03/12 11:35:34;;;;;;;15.07;5.43;;;;;;;;;;4984409;28;91897;-51
2024/03/12 11:37:59;;;;;;;13.50;5.28;;;;;;;;;;4983126;28;91915;-48
2024/03/12 11:40:32;;;;;;;6.83;2.97;;;;;;;;;;4984095;28;92210;-51
2024/03/12 11:42:57;;;;;;;11.18;4.35;;;;;;;;;;4984771;28;91476;-48
2024/03/12 11:45:42;;;;;;;10.70;4.60;;;;;;;;;;4982146;28;92507;-50
2024/03/12 11:48:12;;;;;;;11.23;4.20;;;;;;;;;;4983688;28;93028;-52
2024/03/12 11:50:42;;;;;;;12.35;4.45;;;;;;;;;;4984774;28;93175;-50
2024/03/12 11:53:23;;;;;;;10.65;4.05;;;;;;;;;;4984399;28;93738;-52
2024/03/12 11:56:06;;;;;;;8.57;3.43;;;;;;;;;;4989867;28;91807;-49
2024/03/12 11:58:33;;;;;;;10.00;3.10;;;;;;;;;;4981304;28;92711;-49
2024/03/12 12:00:58;;;;;;;10.33;3.53;;;;;;;;;;4982551;28;91895;-49
2024/03/12 12:03:24;;;;;;;9.70;3.55;;;;;;;;;;4982014;28;92194;-51
2024/03/12 12:05:50;;;;;;;5.37;2.80;;;;;;;;;;4984642;28;91633;-49
2024/03/12 12:08:16;;;;;;;9.35;3.00;;;;;;;;;;4983750;28;91962;-49
2024/03/12 12:10:42;;;;;;;5.85;2.85;;;;;;;;;;4982169;28;92167;-51
2024/03/12 12:13:16;;;;;;;9.43;2.93;;;;;;;;;;4982128;28;93494;-50
2024/03/12 12:15:54;;;;;;;3.83;2.28;;;;;;;;;;4981744;28;92606;-49
2024/03/12 12:18:20;;;;;;;6.82;3.13;;;;;;;;;;4986323;28;92141;-48
2024/03/12 12:20:45;;;;;;;12.13;3.17;;;;;;;;;;4984246;28;92210;-50
2024/03/12 12:23:13;;;;;;;9.83;3.33;;;;;;;;;;4982063;28;92452;-50
2024/03/12 12:25:38;;;;;;;14.30;2.83;;;;;;;;;;4981959;28;92214;-50
2024/03/12 12:28:07;;;;;;;5.40;3.13;;;;;;;;;;4980671;28;92271;-54
2024/03/12 12:30:35;;;;;;;6.88;2.50;;;;;;;;;;4982733;28;92190;-48
2024/03/12 12:33:00;;;;;;;3.72;2.45;;;;;;;;;;4981565;28;92523;-48
2024/03/12 12:35:28;;;;;;;5.67;2.57;;;;;;;;;;4981828;28;91954;-50
2024/03/12 12:37:53;;;;;;;4.78;2.40;;;;;;;;;;4983589;28;92826;-51
2024/03/12 12:40:20;;;;;;;4.93;2.80;;;;;;;;;;4982400;28;91972;-49
2024/03/12 12:42:49;;;;;;;5.30;2.15;;;;;;;;;;4981685;28;92234;-51
2024/03/12 12:45:15;;;;;;;6.63;2.60;;;;;;;;;;4980791;28;91847;-47
2024/03/12 12:47:45;;;;;;;6.63;2.63;;;;;;;;;;4980145;28;93599;-49
2024/03/12 12:50:11;;;;;;;4.50;1.80;;;;;;;;;;4980176;28;92218;-48
2024/03/12 12:52:38;;;;;;;5.38;2.33;;;;;;;;;;4981460;28;92587;-48
2024/03/12 12:55:07;;;;;;;4.73;1.93;;;;;;;;;;4983442;28;91244;-51
2024/03/12 12:57:40;;;;;;;5.38;2.20;;;;;;;;;;4978703;28;93909;-47
2024/03/12 13:00:17;;;;;;;3.38;1.95;;;;;;;;;;4981961;28;91948;-48
2024/03/12 13:02:43;;;;;;;6.10;1.87;;;;;;;;;;4979709;28;92661;-49
2024/03/12 13:05:09;;;;;;;5.78;2.03;;;;;;;;;;4980433;28;91907;-47
2024/03/12 13:07:36;;;;;;;2.22;1.52;;;;;;;;;;4981278;28;92041;-49
2024/03/12 13:10:20;;;;;;;10.23;1.90;;;;;;;;;;4980122;28;92002;-49
2024/03/12 13:12:46;;;;;;;13.93;2.40;;;;;;;;;;4980100;28;93688;-48
2024/03/12 13:15:23;;;;;;;3.72;2.00;;;;;;;;;;4980089;28;92201;-49
2024/03/12 13:17:50;;;;;;;8.20;2.70;;;;;;;;;;4982621;28;91984;-49
2024/03/12 13:20:16;;;;;;;6.85;2.30;;;;;;;;;;4982852;28;93944;-48
2024/03/12 13:22:43;;;;;;;2.35;1.50;;;;;;;;;;4985733;28;91977;-47
2024/03/12 13:25:09;;;;;;;8.45;1.90;;;;;;;;;;4981750;28;92800;-50
2024/03/12 13:27:35;;;;;;;3.95;2.15;;;;;;;;;;4982317;28;92889;-51
2024/03/12 13:30:00;;;;;;;3.20;2.30;;;;;;;;;;4981387;28;92026;-48
2024/03/12 13:32:25;;;;;;;1.95;1.25;;;;;;;;;;4981093;28;91940;-50
2024/03/12 13:34:51;;;;;;;7.20;1.27;;;;;;;;;;4979964;28;91970;-48
2024/03/12 13:37:18;;;;;;;6.22;1.85;;;;;;;;;;4979482;28;95430;-50
2024/03/12 13:39:43;;;;;;;3.65;1.80;;;;;;;;;;4981508;28;91809;-52
2024/03/12 13:42:10;;;;;;;2.77;1.83;;;;;;;;;;4980685;28;91890;-49
2024/03/12 13:44:37;;;;;;;7.72;1.90;;;;;;;;;;4984223;28;92206;-50
2024/03/12 13:47:02;;;;;;;3.92;1.90;;;;;;;;;;4982629;28;92285;-49
2024/03/12 13:49:28;;;;;;;6.47;2.35;;;;;;;;;;4980179;28;92177;-51
2024/03/12 13:51:53;;;;;;;5.40;1.33;;;;;;;;;;4978084;28;95000;-50
2024/03/12 13:54:19;;;;;;;2.70;1.30;;;;;;;;;;4980529;28;92513;-48
2024/03/12 13:56:45;;;;;;;3.00;1.95;;;;;;;;;;4984706;28;91844;-48
2024/03/12 13:59:12;;;;;;;7.63;1.87;;;;;;;;;;4985351;28;92439;-49
2024/03/12 14:01:37;;;;;;;2.80;1.17;;;;;;;;;;4987450;28;92129;-48
2024/03/12 14:04:03;;;;;;;3.33;1.33;;;;;;;;;;4988303;28;92680;-51
2024/03/12 14:06:29;;;;;;;1.97;1.40;;;;;;;;;;4989800;28;92572;-48
2024/03/12 14:08:55;;;;;;;3.07;1.37;;;;;;;;;;4986533;28;92204;-48
2024/03/12 14:11:20;;;;;;;2.15;1.42;;;;;;;;;;4985659;28;91862;-51
2024/03/12 14:13:49;;;;;;;2.50;1.67;;;;;;;;;;4985099;28;92290;-52
2024/03/12 14:16:14;;;;;;;1.15;1.00;;;;;;;;;;4983666;28;92771;-49
2024/03/12 14:18:42;;;;;;;8.10;1.98;;;;;;;;;;4983035;28;93997;-48
2024/03/12 14:21:07;;;;;;;4.30;2.03;;;;;;;;;;4983997;28;91863;-50
2024/03/12 14:23:33;;;;;;;4.47;1.53;;;;;;;;;;4984113;28;92000;-48
2024/03/12 14:25:58;;;;;;;1.43;1.17;;;;;;;;;;4983841;28;93520;-49
2024/03/12 14:28:24;;;;;;;2.23;1.57;;;;;;;;;;4986564;28;92655;-48
2024/03/12 14:30:50;;;;;;;2.67;1.58;;;;;;;;;;4984284;28;92461;-48
2024/03/12 14:33:16;;;;;;;2.23;1.53;;;;;;;;;;4984526;28;91393;-48
2024/03/12 14:35:41;;;;;;;3.45;1.73;;;;;;;;;;4984463;28;91959;-50
2024/03/12 14:38:07;;;;;;;1.98;1.20;;;;;;;;;;4985446;28;92142;-48
2024/03/12 14:40:33;;;;;;;5.45;1.40;;;;;;;;;;4983753;28;92994;-49
2024/03/12 14:43:00;;;;;;;4.57;1.30;;;;;;;;;;4984562;28;91938;-48
2024/03/12 14:45:25;;;;;;;3.95;1.70;;;;;;;;;;4983984;28;91891;-51